createdAt,value
2022-12-01T00:13:04.252Z,39.00
2022-12-01T00:27:04.229Z,35.70
2022-12-01T00:41:04.230Z,31.80
2022-12-01T00:55:04.260Z,30.90
2022-12-01T01:09:04.332Z,29.20
2022-12-01T01:23:04.354Z,27.20
2022-12-01T01:37:04.409Z,24.30
2022-12-01T01:51:04.416Z,22.80
2022-12-01T02:05:04.425Z,20.05
2022-12-01T02:19:04.494Z,17.65
2022-12-01T02:33:04.846Z,17.35
2022-12-01T02:47:04.991Z,16.60
2022-12-01T03:01:05.026Z,14.75
2022-12-01T03:15:05.052Z,14.90
2022-12-01T03:29:05.009Z,13.05
2022-12-01T03:43:05.015Z,13.00
2022-12-01T03:57:05.040Z,11.40
2022-12-01T04:11:05.055Z,11.20
2022-12-01T04:25:05.034Z,10.60
2022-12-01T04:39:05.027Z,9.80
2022-12-01T04:53:05.048Z,9.00
2022-12-01T05:07:05.057Z,8.40
2022-12-01T05:21:05.073Z,8.50
2022-12-01T05:35:05.069Z,10.00
2022-12-01T05:49:05.099Z,10.60
2022-12-01T06:03:05.094Z,10.30
2022-12-01T06:17:05.153Z,10.10
2022-12-01T06:32:05.150Z,13.80
2022-12-01T06:47:05.200Z,11.20
2022-12-01T07:02:05.248Z,12.00
2022-12-01T07:18:05.177Z,17.40
2022-12-01T07:33:05.165Z,24.80
2022-12-01T07:48:05.166Z,20.70
2022-12-01T08:03:05.362Z,27.40
2022-12-01T08:18:05.220Z,19.30
2022-12-01T08:33:05.240Z,20.60
2022-12-01T08:48:05.287Z,16.30
2022-12-01T09:03:05.338Z,16.00
2022-12-01T09:18:05.593Z,16.70
2022-12-01T09:33:05.626Z,14.10
2022-12-01T09:48:05.636Z,15.40
2022-12-01T10:03:05.795Z,12.80
2022-12-01T10:18:05.796Z,11.60
2022-12-01T10:33:05.813Z,9.70
2022-12-01T10:38:48.580Z,9.00
2022-12-01T10:52:48.529Z,10.20
2022-12-01T11:07:48.513Z,8.40
2022-12-01T11:22:48.718Z,7.30
2022-12-01T11:38:06.458Z,8.10
2022-12-01T11:52:48.832Z,7.20
2022-12-01T12:07:48.998Z,6.70
2022-12-01T12:22:53.855Z,6.10
2022-12-01T12:37:49.385Z,7.80
2022-12-01T12:52:49.483Z,9.70
2022-12-01T13:07:49.487Z,8.00
2022-12-01T13:22:49.593Z,8.70
2022-12-01T13:37:49.709Z,7.80
2022-12-01T13:52:49.626Z,8.20
2022-12-01T14:07:49.684Z,7.40
2022-12-01T14:22:49.616Z,5.80
2022-12-01T14:37:49.640Z,6.20
2022-12-01T14:52:49.619Z,8.90
2022-12-01T15:07:49.804Z,7.90
2022-12-01T15:23:49.673Z,5.80
2022-12-01T15:38:49.688Z,6.30
2022-12-01T15:53:49.729Z,5.40
2022-12-01T16:08:49.880Z,7.10
2022-12-01T16:23:49.745Z,5.95
2022-12-01T16:37:49.814Z,7.65
2022-12-01T16:51:55.727Z,9.20
2022-12-01T17:05:49.835Z,7.10
2022-12-01T17:19:50.100Z,5.70
2022-12-01T17:33:49.951Z,7.50
2022-12-01T17:47:49.987Z,7.30
2022-12-01T18:01:49.980Z,6.90
2022-12-01T18:15:50.128Z,6.00
2022-12-01T18:29:50.391Z,6.20
2022-12-01T18:43:50.290Z,5.30
2022-12-01T18:57:50.269Z,11.10
2022-12-01T19:11:50.275Z,13.40
2022-12-01T19:25:50.304Z,12.50
2022-12-01T19:39:50.267Z,13.50
2022-12-01T19:53:50.311Z,12.20
2022-12-01T20:07:50.356Z,13.50
2022-12-01T20:21:50.286Z,13.00
2022-12-01T20:35:50.309Z,10.60
2022-12-01T20:49:53.028Z,12.50
2022-12-01T21:03:50.269Z,10.20
2022-12-01T21:18:50.431Z,9.50
2022-12-01T21:32:50.444Z,10.80
2022-12-01T21:46:50.473Z,10.80
2022-12-01T22:00:50.440Z,12.20
2022-12-01T22:14:50.568Z,11.90
2022-12-01T22:28:50.558Z,11.90
2022-12-01T22:42:50.473Z,10.20
2022-12-01T22:56:50.497Z,9.30
2022-12-01T23:10:50.484Z,9.50
2022-12-01T23:24:50.761Z,8.00
2022-12-01T23:38:50.853Z,7.80
2022-12-01T23:52:50.844Z,7.50
